createdAt,value
2022-10-04T00:03:12.035Z,2.65
2022-10-04T03:24:29.191Z,4.00
2022-10-04T03:26:58.752Z,3.92
2022-10-04T03:29:30.202Z,4.90
2022-10-04T03:32:01.527Z,4.53
2022-10-04T03:34:34.788Z,4.18
2022-10-04T03:37:03.933Z,3.88
2022-10-04T03:39:36.643Z,4.70
2022-10-04T03:44:33.776Z,4.07
2022-10-04T03:47:02.242Z,4.05
2022-10-04T03:49:34.610Z,4.03
2022-10-04T03:52:03.773Z,4.03
2022-10-04T03:54:34.222Z,3.90
2022-10-04T03:57:03.098Z,3.67
2022-10-04T03:59:30.952Z,3.80
2022-10-04T04:02:07.503Z,3.30
2022-10-04T04:04:44.182Z,4.15
2022-10-04T04:07:18.828Z,4.28
2022-10-04T04:09:52.820Z,4.10
2022-10-04T04:12:25.477Z,3.80
2022-10-04T04:14:54.076Z,4.00
2022-10-04T04:17:36.850Z,4.55
2022-10-04T04:20:08.196Z,4.63
2022-10-04T04:22:37.747Z,4.85
2022-10-04T04:25:12.494Z,3.92
2022-10-04T04:27:42.889Z,3.92
2022-10-04T04:30:17.758Z,2.95
2022-10-04T04:32:49.475Z,3.30
2022-10-04T04:35:26.304Z,3.25
2022-10-04T04:38:05.396Z,3.10
2022-10-04T04:40:34.547Z,3.40
2022-10-04T04:43:03.833Z,2.85
2022-10-04T04:45:34.196Z,3.90
2022-10-04T04:48:03.904Z,4.20
2022-10-04T04:50:35.438Z,4.22
2022-10-04T04:53:08.005Z,4.97
2022-10-04T04:56:02.246Z,4.78
2022-10-04T05:01:03.818Z,3.05
2022-10-04T05:03:33.122Z,3.58
2022-10-04T05:06:02.915Z,3.60
2022-10-04T05:08:31.721Z,4.22
2022-10-04T05:11:07.889Z,4.53
2022-10-04T05:13:41.115Z,4.20
2022-10-04T05:16:14.118Z,3.65
2022-10-04T05:18:41.793Z,4.63
2022-10-04T05:21:16.053Z,3.75
2022-10-04T05:23:43.724Z,3.75
2022-10-04T05:26:15.087Z,3.42
2022-10-04T05:28:42.881Z,3.05
2022-10-04T05:31:28.263Z,2.90
2022-10-04T05:33:58.448Z,3.65
2022-10-04T05:36:52.226Z,2.72
2022-10-04T05:39:26.189Z,3.10
2022-10-04T05:42:02.757Z,3.00
2022-10-04T05:44:32.592Z,3.03
2022-10-04T05:47:01.863Z,3.22
2022-10-04T05:49:34.859Z,3.42
2022-10-04T05:52:04.884Z,4.00
2022-10-04T05:54:35.710Z,3.45
2022-10-04T05:57:24.480Z,2.78
2022-10-04T06:00:09.544Z,2.50
2022-10-04T06:03:10.783Z,2.97
2022-10-04T06:05:49.727Z,2.80
2022-10-04T06:08:28.877Z,2.85
2022-10-04T06:11:06.310Z,2.85
2022-10-04T06:13:52.681Z,3.53
2022-10-04T06:16:29.833Z,3.05
2022-10-04T06:19:26.581Z,2.88
2022-10-04T06:22:06.529Z,2.30
2022-10-04T06:24:38.244Z,2.78
2022-10-04T06:27:14.010Z,2.72
2022-10-04T06:29:47.164Z,2.55
2022-10-04T06:32:46.205Z,2.33
2022-10-04T06:35:30.615Z,2.88
2022-10-04T06:38:44.525Z,2.92
2022-10-04T06:41:59.416Z,2.92
2022-10-04T06:44:41.393Z,2.92
2022-10-04T06:47:29.576Z,3.00
2022-10-04T06:50:07.811Z,2.40
2022-10-04T06:52:54.774Z,2.80
2022-10-04T06:55:47.065Z,2.85
2022-10-04T06:58:41.854Z,2.58
2022-10-04T07:01:23.307Z,2.88
2022-10-04T07:03:58.408Z,2.80
2022-10-04T07:06:31.758Z,2.78
2022-10-04T07:09:05.422Z,3.65
2022-10-04T07:11:43.944Z,3.53
2022-10-04T07:14:17.521Z,3.78
2022-10-04T07:16:49.535Z,3.22
2022-10-04T07:19:35.443Z,2.67
2022-10-04T07:22:15.205Z,2.92
2022-10-04T07:24:58.004Z,2.75
2022-10-04T07:27:29.915Z,2.30
2022-10-04T07:29:58.969Z,2.70
2022-10-04T07:32:29.756Z,2.70
2022-10-04T07:35:05.965Z,2.97
2022-10-04T07:37:38.126Z,2.90
2022-10-04T07:40:10.585Z,3.17
2022-10-04T07:42:47.823Z,2.50
2022-10-04T07:45:20.925Z,3.00
2022-10-04T07:47:48.897Z,2.67
2022-10-04T07:50:32.145Z,2.85
2022-10-04T07:53:07.133Z,2.70
2022-10-04T07:55:50.741Z,3.33
2022-10-04T07:58:30.154Z,3.00
2022-10-04T08:01:01.941Z,2.88
2022-10-04T08:03:49.121Z,2.43
2022-10-04T08:06:26.080Z,2.72
2022-10-04T08:09:09.840Z,3.50
2022-10-04T08:11:45.739Z,2.60
2022-10-04T08:14:27.492Z,2.95
2022-10-04T08:17:11.820Z,2.78
2022-10-04T08:19:50.612Z,2.60
2022-10-04T08:22:34.035Z,2.72
2022-10-04T08:25:11.127Z,2.97
2022-10-04T08:28:05.266Z,2.90
2022-10-04T08:30:49.031Z,2.70
2022-10-04T08:33:29.923Z,2.90
2022-10-04T08:36:12.000Z,2.45
2022-10-04T08:38:48.768Z,3.13
2022-10-04T08:41:55.031Z,2.70
2022-10-04T08:44:56.790Z,2.42
2022-10-04T08:47:54.502Z,2.55
2022-10-04T08:50:39.592Z,2.83
2022-10-04T08:53:35.455Z,2.42
2022-10-04T08:56:22.393Z,2.83
2022-10-04T08:59:28.333Z,2.05
2022-10-04T09:02:31.561Z,2.50
2022-10-04T09:08:17.938Z,2.75
2022-10-04T09:11:08.329Z,2.17
2022-10-04T09:13:55.177Z,2.08
2022-10-04T09:16:30.118Z,1.95
2022-10-04T09:19:20.315Z,2.00
2022-10-04T09:22:10.452Z,2.47
2022-10-04T09:25:20.030Z,1.80
2022-10-04T09:28:21.785Z,2.65
2022-10-04T09:31:23.290Z,2.13
2022-10-04T09:34:27.356Z,2.08
2022-10-04T09:37:26.826Z,2.33
2022-10-04T09:40:47.115Z,2.15
2022-10-04T09:43:57.000Z,1.60
2022-10-04T09:47:15.007Z,2.22
2022-10-04T09:50:14.603Z,1.30
2022-10-04T09:53:10.079Z,1.52
2022-10-04T09:56:13.221Z,1.50
2022-10-04T09:59:30.877Z,1.33
2022-10-04T10:02:37.061Z,1.52
2022-10-04T10:05:42.702Z,1.35
2022-10-04T10:17:45.581Z,1.40
2022-10-04T10:20:34.474Z,1.10
2022-10-04T10:23:37.570Z,1.08
2022-10-04T10:26:36.892Z,1.27
2022-10-04T10:29:41.053Z,1.13
2022-10-04T10:43:27.122Z,1.65
2022-10-04T10:46:15.567Z,1.38
2022-10-04T11:26:23.730Z,1.25
2022-10-04T13:20:30.414Z,1.80
2022-10-04T13:23:03.652Z,1.75
2022-10-04T13:25:55.374Z,1.67
2022-10-04T13:34:22.668Z,1.95
2022-10-04T13:41:18.042Z,1.40
2022-10-04T13:48:07.250Z,1.50
2022-10-04T13:51:20.648Z,2.03
2022-10-04T13:54:39.480Z,1.30
2022-10-04T13:57:55.055Z,1.60
2022-10-04T14:17:27.180Z,1.08
2022-10-04T14:20:38.774Z,1.30
2022-10-04T14:23:49.420Z,0.85
2022-10-04T14:29:46.147Z,1.48
2022-10-04T14:32:47.324Z,1.67
2022-10-04T14:48:14.316Z,1.05
2022-10-04T14:52:06.091Z,1.10
2022-10-04T14:55:12.222Z,1.23
2022-10-04T14:58:28.357Z,1.27
2022-10-04T15:29:41.714Z,1.85
2022-10-04T15:32:25.284Z,1.20
2022-10-04T15:35:06.736Z,1.70
2022-10-04T15:37:44.012Z,1.95
2022-10-04T15:40:25.699Z,1.40
2022-10-04T15:43:07.386Z,1.73
2022-10-04T15:46:06.995Z,1.60
2022-10-04T15:48:55.711Z,1.58
2022-10-04T15:51:42.463Z,1.92
2022-10-04T15:54:19.942Z,2.10
2022-10-04T15:56:53.278Z,1.90
2022-10-04T15:59:33.463Z,2.20
2022-10-04T16:02:22.217Z,2.50
2022-10-04T16:05:03.277Z,2.05
2022-10-04T16:08:14.880Z,2.45
2022-10-04T16:11:14.983Z,2.22
2022-10-04T16:14:43.487Z,2.38
2022-10-04T16:17:41.231Z,2.15
2022-10-04T16:20:50.911Z,2.15
2022-10-04T16:23:31.584Z,2.20
2022-10-04T16:26:01.158Z,2.47
2022-10-04T16:28:53.315Z,2.90
2022-10-04T16:31:28.080Z,2.85
2022-10-04T16:34:02.398Z,2.42
2022-10-04T16:36:45.991Z,2.75
2022-10-04T16:39:48.993Z,2.75
2022-10-04T16:42:18.684Z,3.00
2022-10-04T16:44:51.812Z,2.70
2022-10-04T16:47:26.467Z,2.50
2022-10-04T16:49:57.177Z,2.38
2022-10-04T16:52:48.053Z,2.70
2022-10-04T16:55:44.277Z,3.33
2022-10-04T16:58:41.279Z,3.63
2022-10-04T17:02:00.161Z,3.50
2022-10-04T17:05:18.280Z,3.00
2022-10-04T17:08:05.319Z,3.40
2022-10-04T17:10:41.177Z,3.75
2022-10-04T17:13:23.350Z,3.80
2022-10-04T17:16:01.972Z,3.70
2022-10-04T17:18:38.742Z,3.63
2022-10-04T17:21:24.168Z,3.63
2022-10-04T17:24:14.430Z,3.90
2022-10-04T17:27:00.827Z,4.20
2022-10-04T17:29:46.806Z,3.85
2022-10-04T17:32:24.596Z,3.08
2022-10-04T17:35:09.872Z,3.20
2022-10-04T17:37:47.111Z,3.63
2022-10-04T17:40:30.303Z,4.13
2022-10-04T17:43:06.935Z,4.00
2022-10-04T17:46:09.811Z,4.13
2022-10-04T17:49:03.214Z,3.72
2022-10-04T17:51:57.496Z,3.20
2022-10-04T17:54:47.375Z,3.67
2022-10-04T17:57:22.709Z,4.10
2022-10-04T17:59:55.986Z,4.03
2022-10-04T18:02:30.276Z,3.70
2022-10-04T18:05:01.559Z,3.50
2022-10-04T18:07:38.039Z,3.80
2022-10-04T18:10:24.633Z,4.35
2022-10-04T18:12:59.883Z,3.97
2022-10-04T18:15:33.062Z,3.92
2022-10-04T18:18:16.302Z,5.28
2022-10-04T18:21:05.212Z,5.63
2022-10-04T18:23:36.853Z,7.50
2022-10-04T18:26:12.582Z,5.33
2022-10-04T18:28:40.977Z,4.70
2022-10-04T19:18:57.228Z,4.97
2022-10-04T19:21:31.727Z,4.78
2022-10-04T19:24:23.690Z,4.38
2022-10-04T19:26:58.302Z,4.32
2022-10-04T19:29:38.596Z,4.95
2022-10-04T19:32:12.603Z,5.25
2022-10-04T19:34:54.079Z,5.18
2022-10-04T19:37:26.790Z,4.63
2022-10-04T19:42:36.364Z,4.20
2022-10-04T19:45:19.673Z,5.20
2022-10-04T19:47:51.720Z,4.95
2022-10-04T19:50:24.043Z,4.75
2022-10-04T19:52:57.832Z,4.65
2022-10-04T19:55:38.203Z,4.95
2022-10-04T19:58:18.278Z,5.03
2022-10-04T20:00:46.663Z,4.50
2022-10-04T20:03:14.927Z,8.60
2022-10-04T20:05:49.040Z,4.15
2022-10-04T20:08:37.797Z,3.72
2022-10-04T20:11:19.031Z,4.15
2022-10-04T20:13:47.366Z,3.58
2022-10-04T20:16:16.091Z,4.32
2022-10-04T20:19:16.034Z,4.75
2022-10-04T20:21:45.527Z,3.92
2022-10-04T20:24:17.883Z,3.97
2022-10-04T20:27:00.356Z,4.18
2022-10-04T20:30:05.473Z,4.38
2022-10-04T20:32:56.147Z,4.40
2022-10-04T20:36:08.506Z,4.50
2022-10-04T20:39:03.073Z,4.55
2022-10-04T20:42:01.697Z,4.22
2022-10-04T20:44:44.592Z,4.40
2022-10-04T20:49:58.773Z,4.47
2022-10-04T20:52:28.962Z,4.30
2022-10-04T20:55:00.200Z,4.60
2022-10-04T20:57:30.689Z,4.10
2022-10-04T20:59:59.666Z,4.47
2022-10-04T21:02:29.083Z,4.32
2022-10-04T21:05:13.767Z,4.30
2022-10-04T21:07:42.287Z,3.95
2022-10-04T21:10:20.577Z,4.72
2022-10-04T21:12:50.113Z,4.13
2022-10-04T21:15:23.521Z,4.10
2022-10-04T21:18:03.319Z,3.58
2022-10-04T21:20:47.441Z,3.35
2022-10-04T21:23:23.635Z,3.72
